createdAt,value
2019-05-30T00:00:46.105Z,3.33
2019-05-30T00:03:16.385Z,3.30
2019-05-30T00:05:46.812Z,3.40
2019-05-30T00:08:17.010Z,3.47
2019-05-30T00:10:47.064Z,3.20
2019-05-30T00:13:17.211Z,3.57
2019-05-30T00:15:47.429Z,3.83
2019-05-30T00:18:17.727Z,3.70
2019-05-30T00:20:47.874Z,3.83
2019-05-30T00:23:17.945Z,3.80
2019-05-30T00:25:48.178Z,3.20
2019-05-30T00:28:18.701Z,3.47
2019-05-30T00:30:49.818Z,3.20
2019-05-30T00:33:20.855Z,2.90
2019-05-30T00:35:51.006Z,2.80
2019-05-30T00:38:21.070Z,2.60
2019-05-30T00:40:51.244Z,3.03
2019-05-30T00:43:21.531Z,2.70
2019-05-30T00:45:51.560Z,2.87
2019-05-30T00:48:21.618Z,2.70
2019-05-30T00:50:51.658Z,2.90
2019-05-30T00:53:21.795Z,3.03
2019-05-30T00:55:51.833Z,2.70
2019-05-30T00:58:22.172Z,2.90
2019-05-30T01:00:52.202Z,3.17
2019-05-30T01:03:22.333Z,2.57
2019-05-30T01:05:52.618Z,2.83
2019-05-30T01:08:22.686Z,2.73
2019-05-30T01:10:52.808Z,2.53
2019-05-30T01:13:22.988Z,2.30
2019-05-30T01:15:53.190Z,2.53
2019-05-30T01:18:23.385Z,2.40
2019-05-30T01:20:53.425Z,2.50
2019-05-30T01:23:23.507Z,2.33
2019-05-30T01:25:53.671Z,2.23
2019-05-30T01:28:24.473Z,2.70
2019-05-30T01:31:01.499Z,2.50
2019-05-30T01:33:26.301Z,2.70
2019-05-30T01:35:57.678Z,2.60
2019-05-30T01:38:27.986Z,2.60
2019-05-30T01:40:58.099Z,2.27
2019-05-30T01:43:28.683Z,2.70
2019-05-30T01:45:59.823Z,2.53
2019-05-30T01:48:30.303Z,2.30
2019-05-30T01:51:00.546Z,2.40
2019-05-30T01:53:30.676Z,2.50
2019-05-30T01:56:01.008Z,2.10
2019-05-30T01:58:31.076Z,2.73
2019-05-30T02:01:17.081Z,2.43
2019-05-30T02:03:32.882Z,2.60
2019-05-30T02:06:03.340Z,2.23
2019-05-30T02:08:52.741Z,2.53
2019-05-30T02:11:23.120Z,2.67
2019-05-30T02:13:53.339Z,2.23
2019-05-30T02:16:23.454Z,2.60
2019-05-30T02:18:53.533Z,2.57
2019-05-30T02:21:23.748Z,2.70
2019-05-30T02:23:54.316Z,2.63
2019-05-30T02:26:24.536Z,3.33
2019-05-30T02:28:56.316Z,3.20
2019-05-30T02:31:38.612Z,3.20
2019-05-30T02:33:58.354Z,3.73
2019-05-30T02:36:28.449Z,3.67
2019-05-30T02:39:01.001Z,3.67
2019-05-30T02:41:31.336Z,4.00
2019-05-30T02:44:02.912Z,4.03
2019-05-30T02:46:33.183Z,4.57
2019-05-30T02:49:04.931Z,4.53
2019-05-30T02:51:35.089Z,4.50
2019-05-30T02:54:07.019Z,4.70
2019-05-30T02:56:36.943Z,4.53
2019-05-30T02:59:09.234Z,4.70
2019-05-30T03:01:58.343Z,4.60
2019-05-30T03:04:12.706Z,4.80
2019-05-30T03:06:42.693Z,4.90
2019-05-30T03:09:13.153Z,5.07
2019-05-30T03:11:43.753Z,5.10
2019-05-30T03:14:19.194Z,4.80
2019-05-30T03:16:45.712Z,5.40
2019-05-30T03:19:15.792Z,5.17
2019-05-30T03:21:45.886Z,5.97
2019-05-30T03:24:16.284Z,5.00
2019-05-30T03:26:46.497Z,5.43
2019-05-30T03:29:16.774Z,5.07
2019-05-30T03:31:48.428Z,5.60
2019-05-30T03:34:27.699Z,5.33
2019-05-30T03:36:50.346Z,5.57
2019-05-30T03:39:20.465Z,5.37
2019-05-30T03:41:50.713Z,5.20
2019-05-30T03:44:20.822Z,5.70
2019-05-30T03:46:54.096Z,5.83
2019-05-30T03:49:27.333Z,5.47
2019-05-30T03:51:59.084Z,5.60
2019-05-30T03:54:30.061Z,5.47
2019-05-30T03:57:09.034Z,5.80
2019-05-30T03:59:47.383Z,5.43
2019-05-30T04:02:55.105Z,6.30
2019-05-30T04:05:11.953Z,5.50
2019-05-30T04:07:47.145Z,5.73
2019-05-30T04:10:19.819Z,6.10
2019-05-30T04:13:03.093Z,5.77
2019-05-30T04:15:35.105Z,6.07
2019-05-30T04:18:06.817Z,6.20
2019-05-30T04:20:37.181Z,6.03
2019-05-30T04:23:08.470Z,6.10
2019-05-30T04:25:39.474Z,6.17
2019-05-30T04:28:09.774Z,6.43
2019-05-30T04:30:39.934Z,6.40
2019-05-30T04:33:19.400Z,6.30
2019-05-30T04:35:41.755Z,6.73
2019-05-30T04:38:12.721Z,6.60
2019-05-30T04:40:43.324Z,6.20
2019-05-30T04:43:13.531Z,6.00
2019-05-30T04:45:43.853Z,6.50
2019-05-30T04:48:14.145Z,5.77
2019-05-30T04:50:44.529Z,5.60
2019-05-30T04:53:16.207Z,6.40
2019-05-30T04:55:46.593Z,4.73
2019-05-30T04:58:18.072Z,5.70
2019-05-30T05:00:48.737Z,5.63
2019-05-30T05:03:37.007Z,5.20
2019-05-30T05:05:50.725Z,5.33
2019-05-30T05:08:22.120Z,5.37
2019-05-30T05:10:52.439Z,5.10
2019-05-30T05:13:22.753Z,4.87
2019-05-30T05:15:53.001Z,4.60
2019-05-30T05:18:23.409Z,4.50
2019-05-30T05:20:53.980Z,5.07
2019-05-30T05:23:24.019Z,4.77
2019-05-30T05:26:00.776Z,4.90
2019-05-30T05:28:25.942Z,4.43
2019-05-30T05:30:56.076Z,4.40
2019-05-30T05:33:28.365Z,4.40
2019-05-30T05:35:58.440Z,4.50
2019-05-30T05:38:28.589Z,4.27
2019-05-30T05:40:58.783Z,4.73
2019-05-30T05:43:29.051Z,4.40
2019-05-30T05:45:59.196Z,4.73
2019-05-30T05:48:29.247Z,5.10
2019-05-30T05:50:59.374Z,4.80
2019-05-30T05:53:29.417Z,4.60
2019-05-30T05:55:59.602Z,4.70
2019-05-30T05:58:29.706Z,4.43
2019-05-30T06:00:59.764Z,4.50
2019-05-30T06:03:29.868Z,4.60
2019-05-30T06:06:00.553Z,4.90
2019-05-30T06:08:31.024Z,4.87
2019-05-30T06:11:01.359Z,5.50
2019-05-30T06:13:31.509Z,5.00
2019-05-30T06:16:01.618Z,5.30
2019-05-30T06:18:31.743Z,5.20
2019-05-30T06:21:02.046Z,5.40
2019-05-30T06:23:32.212Z,5.07
2019-05-30T06:26:02.350Z,4.93
2019-05-30T06:28:33.466Z,4.73
2019-05-30T06:31:03.787Z,5.30
2019-05-30T06:33:33.943Z,5.80
2019-05-30T06:36:04.060Z,5.53
2019-05-30T06:38:34.339Z,6.17
2019-05-30T06:41:04.591Z,6.70
2019-05-30T06:43:34.740Z,6.63
2019-05-30T06:46:05.008Z,7.13
2019-05-30T06:48:35.135Z,7.00
2019-05-30T06:51:05.253Z,8.40
2019-05-30T06:53:35.392Z,8.93
2019-05-30T06:56:05.671Z,8.97
2019-05-30T06:58:48.044Z,9.23
2019-05-30T07:01:07.919Z,9.17
2019-05-30T07:03:38.317Z,9.47
2019-05-30T07:06:09.408Z,9.33
2019-05-30T07:08:40.089Z,8.90
2019-05-30T07:11:10.695Z,9.50
2019-05-30T07:13:40.949Z,9.17
2019-05-30T07:16:11.125Z,9.40
2019-05-30T07:18:41.199Z,8.93
2019-05-30T07:21:11.483Z,9.53
2019-05-30T07:23:41.695Z,9.43
2019-05-30T07:26:12.237Z,8.97
2019-05-30T07:28:42.581Z,8.50
2019-05-30T07:31:12.681Z,8.63
2019-05-30T07:33:42.869Z,8.13
2019-05-30T07:36:13.115Z,9.37
2019-05-30T07:38:43.439Z,9.37
2019-05-30T07:41:13.707Z,9.27
2019-05-30T07:43:43.883Z,9.57
2019-05-30T07:46:14.129Z,9.80
2019-05-30T07:48:44.608Z,9.20
2019-05-30T07:51:14.897Z,9.67
2019-05-30T07:53:45.253Z,9.60
2019-05-30T07:56:15.370Z,8.87
2019-05-30T07:58:46.027Z,9.00
2019-05-30T08:01:16.199Z,9.67
2019-05-30T08:03:48.042Z,9.60
2019-05-30T08:06:18.245Z,9.13
2019-05-30T08:08:48.604Z,8.67
2019-05-30T08:11:18.917Z,9.20
2019-05-30T08:13:49.509Z,9.23
2019-05-30T08:16:19.671Z,9.40
2019-05-30T08:18:50.975Z,8.70
2019-05-30T08:21:23.385Z,9.43
2019-05-30T08:23:55.569Z,9.17
2019-05-30T08:26:28.008Z,9.17
2019-05-30T08:28:59.688Z,8.70
2019-05-30T08:31:30.418Z,7.97
2019-05-30T08:34:01.561Z,8.40
2019-05-30T08:36:32.619Z,8.17
2019-05-30T08:39:03.374Z,8.73
2019-05-30T08:41:37.363Z,8.67
2019-05-30T08:44:08.499Z,8.30
2019-05-30T08:46:39.915Z,8.10
2019-05-30T08:49:10.249Z,8.10
2019-05-30T08:51:41.286Z,8.10
2019-05-30T08:54:13.661Z,7.77
2019-05-30T08:56:43.689Z,7.87
2019-05-30T08:59:13.903Z,9.00
2019-05-30T09:01:44.034Z,8.00
2019-05-30T09:04:14.149Z,8.80
2019-05-30T09:06:44.586Z,8.30
2019-05-30T09:09:14.846Z,8.10
2019-05-30T09:11:44.978Z,8.20
2019-05-30T09:14:15.073Z,8.20
2019-05-30T09:16:46.532Z,8.40
2019-05-30T09:19:16.862Z,8.10
2019-05-30T09:21:47.516Z,8.00
2019-05-30T09:24:17.850Z,8.37
2019-05-30T09:26:50.301Z,8.27
2019-05-30T09:29:19.739Z,7.77
2019-05-30T09:31:49.867Z,8.43
2019-05-30T09:34:19.901Z,8.40
2019-05-30T09:36:50.047Z,8.37
2019-05-30T09:39:20.161Z,7.50
2019-05-30T09:41:50.232Z,7.50
2019-05-30T09:44:20.301Z,7.07
2019-05-30T09:46:50.599Z,8.20
2019-05-30T09:49:20.808Z,7.63
2019-05-30T09:51:51.150Z,7.77
2019-05-30T09:54:21.726Z,6.73
2019-05-30T09:56:53.112Z,7.20
2019-05-30T09:59:23.676Z,7.20
2019-05-30T10:01:53.943Z,6.30
2019-05-30T10:04:24.016Z,6.30
2019-05-30T10:06:54.161Z,6.13
2019-05-30T10:09:24.290Z,5.70
2019-05-30T10:11:57.390Z,5.50
2019-05-30T10:14:27.575Z,5.33
2019-05-30T10:16:58.143Z,5.37
2019-05-30T10:19:28.522Z,4.67
2019-05-30T10:21:58.598Z,4.97
2019-05-30T10:24:28.725Z,4.30
2019-05-30T10:26:58.854Z,4.37
2019-05-30T10:29:28.895Z,4.37
2019-05-30T10:31:58.998Z,4.43
2019-05-30T10:34:29.184Z,4.47
2019-05-30T10:36:59.402Z,3.70
2019-05-30T10:39:29.590Z,4.07
2019-05-30T10:41:59.795Z,3.77
2019-05-30T10:44:29.929Z,3.93
2019-05-30T10:47:00.092Z,4.10
2019-05-30T10:49:34.708Z,3.70
2019-05-30T10:52:01.988Z,3.60
2019-05-30T10:54:32.293Z,3.50
2019-05-30T10:57:02.469Z,3.20
2019-05-30T10:59:32.682Z,3.10
2019-05-30T11:02:02.760Z,2.90
2019-05-30T11:04:32.947Z,2.90
2019-05-30T11:07:11.954Z,3.60
2019-05-30T11:09:46.933Z,3.50
2019-05-30T11:12:17.104Z,3.70
2019-05-30T11:14:48.604Z,3.90
2019-05-30T11:17:19.152Z,4.23
2019-05-30T11:19:49.987Z,4.30
2019-05-30T11:22:21.433Z,4.20
2019-05-30T11:24:54.345Z,4.40
2019-05-30T11:27:24.749Z,3.80
2019-05-30T11:29:55.050Z,3.50
2019-05-30T11:32:25.359Z,3.60
2019-05-30T11:34:57.452Z,3.20
2019-05-30T11:37:27.714Z,3.20
2019-05-30T11:39:59.458Z,3.30
2019-05-30T11:42:30.052Z,3.37
2019-05-30T11:45:00.956Z,3.50
2019-05-30T11:47:31.185Z,3.70
2019-05-30T11:50:01.354Z,3.70
2019-05-30T11:52:32.564Z,3.60
2019-05-30T11:55:03.155Z,3.20
2019-05-30T11:57:33.245Z,2.90
2019-05-30T12:00:03.603Z,2.80
2019-05-30T12:02:34.341Z,2.60
2019-05-30T12:05:06.981Z,2.47
2019-05-30T12:07:37.257Z,2.50
2019-05-30T12:10:08.075Z,2.40
2019-05-30T12:12:38.223Z,2.10
2019-05-30T12:15:09.783Z,2.40
2019-05-30T12:17:40.014Z,2.03
2019-05-30T12:20:10.401Z,2.30
2019-05-30T12:22:40.512Z,2.70
2019-05-30T12:25:10.840Z,3.40
2019-05-30T12:27:41.396Z,3.50
2019-05-30T12:30:12.359Z,2.80
2019-05-30T12:32:42.593Z,2.70
2019-05-30T12:35:15.000Z,2.60
2019-05-30T12:37:54.789Z,2.80
2019-05-30T12:40:17.490Z,2.80
2019-05-30T12:42:47.631Z,2.47
2019-05-30T12:45:18.538Z,2.50
2019-05-30T12:47:48.796Z,2.40
2019-05-30T12:50:20.748Z,2.90
2019-05-30T12:52:50.956Z,2.70
2019-05-30T12:55:21.086Z,3.03
2019-05-30T12:57:51.625Z,3.20
2019-05-30T13:00:22.774Z,2.80
2019-05-30T13:02:53.026Z,2.90
2019-05-30T13:05:23.159Z,2.70
2019-05-30T13:08:08.111Z,2.73
2019-05-30T13:10:25.929Z,2.70
2019-05-30T13:12:57.425Z,3.00
2019-05-30T13:15:27.820Z,3.73
2019-05-30T13:17:58.843Z,3.40
2019-05-30T13:20:29.126Z,3.70
2019-05-30T13:23:00.436Z,3.50
2019-05-30T13:25:30.738Z,3.20
2019-05-30T13:28:04.850Z,3.00
2019-05-30T13:30:33.249Z,2.20
2019-05-30T13:33:04.843Z,2.40
2019-05-30T13:35:35.206Z,2.03
2019-05-30T13:38:05.436Z,2.10
2019-05-30T13:40:35.623Z,1.90
2019-05-30T13:43:06.056Z,2.17
2019-05-30T13:45:36.594Z,1.90
2019-05-30T13:48:13.407Z,1.83
2019-05-30T13:50:45.238Z,1.60
2019-05-30T13:53:16.759Z,1.67
2019-05-30T13:55:47.097Z,1.50
2019-05-30T13:58:17.192Z,1.50
2019-05-30T14:00:47.475Z,1.30
2019-05-30T14:03:17.722Z,1.57
2019-05-30T14:05:48.413Z,1.40
2019-05-30T14:08:18.670Z,1.47
2019-05-30T14:10:48.955Z,1.40
2019-05-30T14:13:19.234Z,1.40
2019-05-30T14:15:49.572Z,1.50
2019-05-30T14:18:19.669Z,1.63
2019-05-30T14:20:49.721Z,1.30
2019-05-30T14:23:19.803Z,1.40
2019-05-30T14:25:49.969Z,1.40
2019-05-30T14:28:20.155Z,1.57
2019-05-30T14:30:50.305Z,1.40
2019-05-30T14:33:20.718Z,1.60
2019-05-30T14:35:51.033Z,1.50
2019-05-30T14:38:21.293Z,1.53
2019-05-30T14:40:52.520Z,1.70
2019-05-30T14:43:23.583Z,1.63
2019-05-30T14:45:53.809Z,1.37
2019-05-30T14:48:24.450Z,1.30
2019-05-30T14:50:54.931Z,1.40
2019-05-30T14:53:25.051Z,1.50
2019-05-30T14:55:55.738Z,1.47
2019-05-30T14:58:26.017Z,1.40
2019-05-30T15:00:56.244Z,1.30
2019-05-30T15:03:26.425Z,1.33
2019-05-30T15:05:56.493Z,1.30
2019-05-30T15:08:26.690Z,1.37
2019-05-30T15:10:56.858Z,1.30
2019-05-30T15:13:32.781Z,1.40
2019-05-30T15:16:02.930Z,1.37
2019-05-30T15:18:33.125Z,1.30
2019-05-30T15:21:03.371Z,1.40
2019-05-30T15:23:33.572Z,1.30
2019-05-30T15:26:03.775Z,1.40
2019-05-30T15:28:33.991Z,1.23
2019-05-30T15:31:04.057Z,1.50
2019-05-30T15:33:34.249Z,1.40
2019-05-30T15:36:04.488Z,1.40
2019-05-30T15:38:34.650Z,1.33
2019-05-30T15:41:05.013Z,1.27
2019-05-30T15:43:35.212Z,1.33
2019-05-30T15:46:05.421Z,1.40
2019-05-30T15:48:35.664Z,1.40
2019-05-30T15:51:06.016Z,1.50
2019-05-30T15:53:38.355Z,1.42
2019-05-30T15:56:09.040Z,1.10
2019-05-30T15:58:39.401Z,1.25
2019-05-30T16:01:09.837Z,1.10
2019-05-30T16:03:40.430Z,1.37
2019-05-30T16:06:10.580Z,1.30
2019-05-30T16:08:40.811Z,1.30
2019-05-30T16:11:11.047Z,1.30
2019-05-30T16:13:41.315Z,1.30
2019-05-30T16:16:11.560Z,1.20
2019-05-30T16:18:41.723Z,1.30
2019-05-30T16:21:13.099Z,1.22
2019-05-30T16:23:43.674Z,1.25
2019-05-30T16:26:22.006Z,2.53
2019-05-30T16:28:52.210Z,1.70
2019-05-30T16:31:22.483Z,1.50
2019-05-30T16:33:52.958Z,1.60
2019-05-30T16:36:23.185Z,1.70
2019-05-30T16:38:53.436Z,1.60
2019-05-30T16:41:23.581Z,1.60
2019-05-30T16:43:53.791Z,1.63
2019-05-30T16:46:23.992Z,2.07
2019-05-30T16:48:54.246Z,3.40
2019-05-30T16:51:24.361Z,4.30
2019-05-30T16:53:54.569Z,1.80
2019-05-30T16:56:25.653Z,2.00
2019-05-30T16:58:56.016Z,1.53
2019-05-30T17:01:26.241Z,2.03
2019-05-30T17:03:56.368Z,1.60
2019-05-30T17:06:26.586Z,1.50
2019-05-30T17:08:56.655Z,2.00
2019-05-30T17:11:26.830Z,1.60
2019-05-30T17:13:57.010Z,1.80
2019-05-30T17:16:27.063Z,1.50
2019-05-30T17:18:57.923Z,1.67
2019-05-30T17:21:28.162Z,1.60
2019-05-30T17:23:58.493Z,1.57
2019-05-30T17:26:28.685Z,1.90
2019-05-30T17:28:58.795Z,2.00
2019-05-30T17:31:28.908Z,1.90
2019-05-30T17:33:59.177Z,2.20
2019-05-30T17:36:29.767Z,2.00
2019-05-30T17:39:00.106Z,2.20
2019-05-30T17:41:30.275Z,2.10
2019-05-30T17:44:00.486Z,1.90
2019-05-30T17:46:30.723Z,1.93
2019-05-30T17:49:00.883Z,2.03
2019-05-30T17:51:30.995Z,2.07
2019-05-30T17:54:01.104Z,2.40
2019-05-30T17:56:31.160Z,2.40
2019-05-30T17:59:01.293Z,2.30
2019-05-30T18:01:31.337Z,2.40
2019-05-30T18:04:01.463Z,2.40
2019-05-30T18:06:31.650Z,2.43
2019-05-30T18:09:01.999Z,2.30
2019-05-30T18:11:32.196Z,1.97
2019-05-30T18:14:02.366Z,2.60
2019-05-30T18:16:32.496Z,2.37
2019-05-30T18:19:03.642Z,2.40
2019-05-30T18:21:33.942Z,2.70
2019-05-30T18:24:04.274Z,2.50
2019-05-30T18:26:34.521Z,2.40
2019-05-30T18:29:05.066Z,2.60
2019-05-30T18:31:35.271Z,2.70
2019-05-30T18:34:24.505Z,2.60
2019-05-30T18:36:54.703Z,2.67
2019-05-30T18:39:24.874Z,2.50
2019-05-30T18:41:55.201Z,2.33
2019-05-30T18:44:28.790Z,2.40
2019-05-30T18:46:57.584Z,2.30
2019-05-30T18:49:27.789Z,2.43
2019-05-30T18:51:57.856Z,2.50
2019-05-30T18:54:28.505Z,2.50
2019-05-30T18:56:58.809Z,2.27
2019-05-30T18:59:29.233Z,2.60
2019-05-30T19:01:59.385Z,2.90
2019-05-30T19:04:29.662Z,2.60
2019-05-30T19:06:59.938Z,2.90
2019-05-30T19:09:31.894Z,2.43
2019-05-30T19:12:01.915Z,2.40
2019-05-30T19:14:34.114Z,2.57
2019-05-30T19:17:03.791Z,2.77
2019-05-30T19:19:35.976Z,2.50
2019-05-30T19:22:06.201Z,2.60
2019-05-30T19:24:36.430Z,2.33
2019-05-30T19:27:06.602Z,2.70
2019-05-30T19:29:37.046Z,2.50
2019-05-30T19:32:07.450Z,2.70
2019-05-30T19:34:37.555Z,2.57
2019-05-30T19:37:07.711Z,2.33
2019-05-30T19:39:37.821Z,2.40
2019-05-30T19:42:07.901Z,2.90
2019-05-30T19:44:41.212Z,2.73
2019-05-30T19:47:09.953Z,2.50
2019-05-30T19:49:40.142Z,2.43
2019-05-30T19:52:10.252Z,2.63
2019-05-30T19:54:40.513Z,2.60
2019-05-30T19:57:10.621Z,2.50
2019-05-30T19:59:40.932Z,2.40
2019-05-30T20:02:11.047Z,2.50
2019-05-30T20:04:41.126Z,2.40
2019-05-30T20:07:11.262Z,2.50
2019-05-30T20:09:41.438Z,2.80
2019-05-30T20:12:11.590Z,3.80
2019-05-30T20:14:41.851Z,2.40
2019-05-30T20:17:12.050Z,2.50
2019-05-30T20:19:42.125Z,2.40
2019-05-30T20:22:12.198Z,2.60
2019-05-30T20:24:42.675Z,2.30
2019-05-30T20:27:12.982Z,2.60
2019-05-30T20:29:46.292Z,2.90
2019-05-30T20:32:15.041Z,2.47
2019-05-30T20:34:45.250Z,2.60
2019-05-30T20:37:16.233Z,2.80
2019-05-30T20:39:47.308Z,2.67
2019-05-30T20:42:19.447Z,2.57
2019-05-30T20:44:50.267Z,2.60
2019-05-30T20:47:21.151Z,2.57
2019-05-30T20:49:52.042Z,2.70
2019-05-30T20:52:22.517Z,2.70
2019-05-30T20:54:53.457Z,2.50
2019-05-30T20:57:23.883Z,2.50
2019-05-30T20:59:54.646Z,2.40
2019-05-30T21:02:25.090Z,2.40
2019-05-30T21:05:02.751Z,2.43
2019-05-30T21:07:35.760Z,2.43
2019-05-30T21:10:06.876Z,2.43
2019-05-30T21:12:45.549Z,2.53
2019-05-30T21:15:21.909Z,2.43
2019-05-30T21:17:59.507Z,2.37
2019-05-30T21:20:32.899Z,2.20
2019-05-30T21:23:03.335Z,2.17
2019-05-30T21:25:35.784Z,2.50
2019-05-30T21:28:05.527Z,2.30
2019-05-30T21:30:38.742Z,2.30
2019-05-30T21:33:07.327Z,2.40
2019-05-30T21:35:37.605Z,2.30
2019-05-30T21:38:07.710Z,2.33
2019-05-30T21:40:38.197Z,2.20
2019-05-30T21:43:09.376Z,2.17
2019-05-30T21:45:40.409Z,2.30
2019-05-30T21:48:10.653Z,1.97
2019-05-30T21:50:43.026Z,2.30
2019-05-30T21:53:12.479Z,2.07
2019-05-30T21:55:43.953Z,2.13
2019-05-30T21:58:14.060Z,2.13
2019-05-30T22:01:21.882Z,2.20
2019-05-30T22:03:52.223Z,1.90
2019-05-30T22:06:22.447Z,2.07
2019-05-30T22:08:52.687Z,2.30
2019-05-30T22:11:22.878Z,2.20
2019-05-30T22:13:53.049Z,1.80
2019-05-30T22:16:23.278Z,1.90
2019-05-30T22:18:53.436Z,2.10
2019-05-30T22:21:23.653Z,2.00
2019-05-30T22:23:53.711Z,2.03
2019-05-30T22:26:23.769Z,2.00
2019-05-30T22:28:53.792Z,2.10
2019-05-30T22:31:23.877Z,2.20
2019-05-30T22:33:54.075Z,2.10
2019-05-30T22:36:24.291Z,2.20
2019-05-30T22:38:54.417Z,2.10
2019-05-30T22:41:24.552Z,2.20
2019-05-30T22:43:54.726Z,2.13
2019-05-30T22:46:24.907Z,2.03
2019-05-30T22:48:55.063Z,2.23
2019-05-30T22:51:27.554Z,2.40
2019-05-30T22:53:57.319Z,1.97
2019-05-30T22:56:27.553Z,2.30
2019-05-30T22:58:57.727Z,2.00
2019-05-30T23:01:27.899Z,2.00
2019-05-30T23:03:58.012Z,2.10
2019-05-30T23:06:28.258Z,2.10
2019-05-30T23:08:58.452Z,2.40
2019-05-30T23:11:28.769Z,2.40
2019-05-30T23:13:58.802Z,2.20
2019-05-30T23:16:28.944Z,2.30
2019-05-30T23:18:59.185Z,2.20
2019-05-30T23:21:29.398Z,2.53
2019-05-30T23:23:59.442Z,2.33
2019-05-30T23:26:29.699Z,2.10
2019-05-30T23:28:59.886Z,2.23
2019-05-30T23:31:30.160Z,2.20
2019-05-30T23:34:00.370Z,2.27
2019-05-30T23:36:30.608Z,2.57
2019-05-30T23:39:00.718Z,2.70
2019-05-30T23:41:30.941Z,2.40
2019-05-30T23:44:10.598Z,2.37
2019-05-30T23:46:32.996Z,2.80
2019-05-30T23:49:03.076Z,2.87
2019-05-30T23:51:33.230Z,3.00
2019-05-30T23:54:03.917Z,2.60
2019-05-30T23:56:34.294Z,2.70
2019-05-30T23:59:04.711Z,3.00
